• Join FlightAware (Why Join?)
  • Login
  • US Flag 
08:45AM EDT


 

Airport Tracker/Info


-or-


 

Live Flight TrackerFlight Track Log ✈ WJA707 ✈ 08-Jul-2013 ✈ CYYZ - CYVR

Flight Track Log - Related Links

Times and Time Zones

All times are in EDT time to prevent confusion due to time zone crossing. See the WJA707 flight status page for this flight to view local times or setup timezone preferences in your user account.

Time Position Orientation Groundspeed Altitude Reporting Facility
EDT Latitude Longitude Course Direction KTS MPH feet Rate Location/Type
10:27AM 43.6920 -79.6340 North 8 9  Level FlightAware
10:27AM 43.6930 -79.6340 360° North 3 3 420 Level FlightAware
10:29AM 43.6750 -79.6630 300° West 158 182 1,100 840 Climbing FlightAware
10:30AM 43.8005 -79.9012 300° West  Level FlightAware Approximate
10:30AM 43.6630 -79.6840 232° Southwest 174 200 2,000  Level FlightAware
10:30AM 43.6500 -79.7100 235° Southwest 212 244 2,400 1,800 Climbing FlightAware
10:31AM 43.6340 -79.7410 235° Southwest 210 242 3,700 2,160 Climbing FlightAware
10:31AM 43.6210 -79.7640 232° Southwest 236 272 4,200 1,200 Climbing FlightAware
10:31AM 43.6070 -79.7900 233° Southwest 262 302 4,500 1,560 Climbing FlightAware
10:32AM 43.5910 -79.8260 238° Southwest 270 311 5,400 2,400 Climbing FlightAware
10:32AM 43.5900 -79.8430 265° West 266 306 5,900 2,640 Climbing FlightAware
10:32AM 43.5950 -79.8670 286° West 266 306 6,500 2,160 Climbing FlightAware
10:32AM 43.6020 -79.8810 305° West 266 306 6,800 1,200 Climbing FlightAware
10:33AM 43.6120 -79.8930 319° Northwest 268 308 6,900 120 Climbing FlightAware
10:33AM 43.6380 -79.9290 315° West 265 305 6,900 600 Level FlightAware
10:33AM 43.6550 -79.9530 314° West 268 308 7,400 1,980 Climbing FlightAware
10:34AM 43.6770 -79.9830 315° West 272 313 8,400 2,220 Climbing FlightAware
10:34AM 43.6940 -80.0070 314° West 280 322 9,200 2,460 Climbing FlightAware
10:35AM 43.7390 -80.0690 315° West 291 335 11,300 2,340 Climbing FlightAware
10:36AM 43.7930 -80.1430 315° West 331 381 13,000 2,400 Climbing FlightAware
10:37AM 43.8420 -80.2150 313° West 341 392 15,100 2,640 Climbing FlightAware
10:37AM 43.8860 -80.2790 314° West 355 409 16,800 2,400 Climbing FlightAware
10:38AM 43.9410 -80.3620 313° West 366 421 18,800 2,400 Climbing FlightAware
10:39AM 43.9940 -80.4410 313° West 373 429 20,700 2,220 Climbing FlightAware
10:39AM 44.0410 -80.5120 313° West 388 447 22,000 1,800 Climbing FlightAware
10:40AM 44.0850 -80.5770 313° West 400 460 23,000 2,100 Climbing FlightAware
10:41AM 44.1430 -80.6650 313° West 406 467 24,800 2,220 Climbing FlightAware
10:41AM 44.1920 -80.7390 313° West 407 468 26,200 1,680 Climbing FlightAware
10:42AM 44.2440 -80.8170 313° West 417 480 27,100 1,560 Climbing FlightAware
10:43AM 44.2970 -80.8990 312° West 426 490 28,300 1,680 Climbing FlightAware
10:44AM 44.3560 -80.9880 313° West 431 496 29,500 1,920 Climbing FlightAware
10:44AM 44.4200 -81.0850 313° West 427 491 31,200 2,460 Climbing FlightAware
10:45AM 44.4690 -81.1610 312° West 413 475 33,000 2,700 Climbing FlightAware
10:46AM 44.5180 -81.2360 313° West 385 443 34,900 2,220 Climbing FlightAware
10:47AM 44.5860 -81.3410 312° West 363 418 36,800 1,140 Climbing FlightAware
10:47AM 44.6290 -81.4080 312° West 377 434 36,900 540 Climbing FlightAware
10:48AM 44.6920 -81.5050 312° West 382 440 37,600 780 Climbing FlightAware
10:49AM 44.7360 -81.5730 312° West 383 441 38,000 240 Climbing FlightAware
10:49AM 44.7870 -81.6530 312° West 382 440 38,000  Level FlightAware
10:50AM 44.8400 -81.7360 312° West 381 438 38,000  Level FlightAware
10:51AM 44.8850 -81.8070 312° West 380 437 38,000  Level FlightAware
10:51AM 44.9300 -81.8780 312° West 378 435 38,000  Level FlightAware
10:52AM 44.9780 -81.9530 312° West 376 433 38,000  Level FlightAware
10:53AM 45.0270 -82.0300 312° West 376 433 38,000  Level FlightAware
10:54AM 45.0770 -82.1100 312° West 378 435 38,000  Level FlightAware
10:54AM 45.1210 -82.1800 312° West 380 437 38,000  Level FlightAware
10:55AM 45.1770 -82.2690 312° West 380 437 38,000  Level FlightAware
10:56AM 45.2190 -82.3370 311° West 380 437 38,000  Level FlightAware
10:56AM 45.2700 -82.4180 312° West 381 438 38,000  Level FlightAware
10:57AM 45.3210 -82.5010 311° West 383 441 38,000  Level FlightAware
10:58AM 45.3660 -82.5730 312° West 384 442 38,000  Level FlightAware
10:58AM 45.4210 -82.6610 312° West 386 444 38,000  Level FlightAware
10:59AM 45.4700 -82.7400 312° West 387 445 38,000  Level FlightAware
11:00AM 45.5290 -82.8370 311° West 388 447 38,000  Level FlightAware
11:01AM 45.5780 -82.9170 311° West 387 445 38,000  Level FlightAware
11:01AM 45.6250 -82.9930 312° West 388 447 38,000  Level FlightAware
11:02AM 45.6770 -83.0790 311° West 388 447 38,000  Level FlightAware
11:03AM 45.7220 -83.1530 311° West 388 447 38,000  Level FlightAware
11:03AM 45.7760 -83.2430 311° West 388 447 38,000  Level FlightAware
11:04AM 45.8230 -83.3200 311° West 388 447 38,000  Level FlightAware
11:05AM 45.8630 -83.3870 311° West 389 448 38,000  Level FlightAware
11:05AM 45.9140 -83.4720 311° West 391 450 38,000  Level FlightAware
11:06AM 45.9610 -83.5500 311° West 394 453 38,000  Level FlightAware
11:07AM 46.0100 -83.6310 311° West 396 456 38,000  Level FlightAware
11:07AM 46.0570 -83.7120 310° West 398 458 38,000  Level FlightAware
11:08AM 46.1070 -83.7950 311° West 399 459 38,000  Level FlightAware
11:09AM 46.1520 -83.8720 310° West 401 461 38,000  Level FlightAware
11:09AM 46.2060 -83.9630 311° West 403 464 38,000  Level FlightAware
11:10AM 46.2580 -84.0520 310° West 406 467 38,000  Level FlightAware
11:12AM 46.3430 -84.1970 310° West 407 468 38,000  Level FlightAware
11:12AM 46.4020 -84.2990 310° West 407 468 38,000  Level FlightAware
11:13AM 46.4420 -84.3910 302° West 400 460 38,000  Level FlightAware
11:14AM 46.4820 -84.4910 300° West 402 463 38,000  Level FlightAware
11:14AM 46.5150 -84.5750 300° West 402 463 38,000  Level FlightAware
11:15AM 46.5470 -84.6590 299° West 402 463 38,000  Level FlightAware
11:16AM 46.5910 -84.7730 299° West 400 460 38,000  Level FlightAware
11:16AM 46.6280 -84.8660 300° West 399 459 38,000  Level FlightAware
11:17AM 46.6600 -84.9500 299° West 398 458 38,000  Level FlightAware
11:18AM 46.7050 -85.0670 299° West 397 457 38,000  Level FlightAware
11:18AM 46.7410 -85.1590 300° West 397 457 38,000  Level FlightAware
11:19AM 46.7760 -85.2510 299° West 396 456 38,000  Level FlightAware
11:20AM 46.8120 -85.3460 299° West 397 457 38,000  Level FlightAware
11:20AM 46.8470 -85.4390 299° West 399 459 38,000  Level FlightAware
11:21AM 46.8920 -85.5580 299° West 402 463 38,000  Level FlightAware
11:22AM 46.9300 -85.6590 299° West 404 465 38,000  Level FlightAware
11:23AM 46.9660 -85.7550 299° West 404 465 38,000  Level FlightAware
11:23AM 47.0060 -85.8600 299° West 405 466 38,000  Level FlightAware
11:24AM 47.0420 -85.9580 298° West 404 465 38,000  Level FlightAware
11:25AM 47.0790 -86.0580 299° West 406 467 38,000  Level FlightAware
11:25AM 47.1140 -86.1530 298° West 405 466 38,000  Level FlightAware
11:26AM 47.1560 -86.2660 299° West 405 466 38,000  Level FlightAware
11:27AM 47.1940 -86.3690 299° West 405 466 38,000  Level FlightAware
11:27AM 47.2300 -86.4670 298° West 403 464 38,000  Level FlightAware
11:28AM 47.2570 -86.5440 297° West 403 464 38,000  Level FlightAware
11:29AM 47.2930 -86.6430 298° West 403 464 38,000  Level FlightAware
11:30AM 47.3200 -86.7170 298° West 403 464 38,000  Level FlightAware
11:30AM 47.3560 -86.8180 298° West 403 464 38,000  Level FlightAware
11:31AM 47.3860 -86.9010 298° West 403 464 38,000  Level FlightAware
11:32AM 47.4130 -86.9750 298° West 403 464 38,000  Level FlightAware
11:32AM 47.4500 -87.0790 298° West 403 464 38,000  Level FlightAware
11:33AM 47.4680 -87.1280 299° West 403 464 38,000  Level FlightAware
11:34AM 47.5210 -87.2770 298° West 403 464 38,000  Level FlightAware
11:35AM 47.5490 -87.3540 298° West 403 464 38,000  Level FlightAware
11:35AM 47.6390 -87.6150 297° West 396 456 38,000  Level FlightAware
11:36AM 47.6740 -87.7140 298° West 392 451 38,000  Level FlightAware
11:37AM 47.7070 -87.8100 297° West 389 448 38,000  Level FlightAware
11:37AM 47.7360 -87.8940 297° West 389 448 38,000  Level FlightAware
11:38AM 47.7660 -87.9800 297° West 388 447 38,000  Level FlightAware
11:39AM 47.7990 -88.0780 297° West 388 447 38,000  Level FlightAware
11:40AM 47.8330 -88.1770 297° West 388 447 38,000  Level FlightAware
11:40AM 47.8570 -88.2480 297° West 388 447 38,000  Level FlightAware
11:41AM 47.8820 -88.3210 297° West 388 447 38,000  Level FlightAware
11:42AM 47.9370 -88.4840 297° West 388 447 38,000  Level FlightAware
11:42AM 47.9720 -88.5850 297° West 385 443 38,000  Level FlightAware
11:43AM 48.0140 -88.7150 296° West 385 443 38,000  Level FlightAware
11:44AM 48.0620 -88.8580 297° West 386 444 38,000  Level FlightAware
11:45AM 48.0990 -88.9650 297° West 388 447 38,000  Level FlightAware
11:46AM 48.1370 -89.0810 296° West 390 449 38,000  Level FlightAware
11:46AM 48.1760 -89.2010 296° West 394 453 38,000  Level FlightAware
11:47AM 48.2050 -89.2890 296° West 394 453 38,000  Level FlightAware
11:48AM 48.2550 -89.4490 295° West 394 453 38,000  Level FlightAware
11:49AM 48.2740 -89.5580 285° West 393 452 38,000  Level FlightAware
11:50AM 48.2930 -89.6740 284° West 393 452 38,000  Level FlightAware
11:50AM 48.3110 -89.7810 284° West 392 451 38,000  Level FlightAware
11:51AM 48.3290 -89.8900 284° West 393 452 38,000  Level FlightAware
11:52AM 48.3470 -90.0010 284° West 393 452 38,000  Level FlightAware
11:52AM 48.3640 -90.1080 283° West 392 451 38,000  Level FlightAware
11:53AM 48.3810 -90.2160 283° West 392 451 38,000  Level FlightAware
11:54AM 48.4010 -90.3420 283° West 391 450 38,000  Level FlightAware
11:54AM 48.4180 -90.4500 283° West 391 450 38,000  Level FlightAware
11:55AM 48.4360 -90.5600 284° West 391 450 38,000  Level FlightAware
11:56AM 48.4500 -90.6530 283° West 392 451 38,000  Level FlightAware
11:56AM 48.4670 -90.7590 284° West 393 452 38,000  Level FlightAware
11:57AM 48.4850 -90.8740 283° West 393 452 38,000  Level FlightAware
11:58AM 48.5010 -90.9820 283° West 396 456 38,000  Level FlightAware
11:58AM 48.5150 -91.0750 283° West 398 458 38,000  Level FlightAware
11:59AM 48.5330 -91.1910 283° West 399 459 38,000  Level FlightAware
12:00PM 48.5520 -91.3180 283° West 400 460 38,000  Level FlightAware
12:01PM 48.5780 -91.4930 283° West 401 461 38,000  Level FlightAware
12:02PM 48.5960 -91.6160 283° West 401 461 38,000  Level FlightAware
12:02PM 48.6120 -91.7230 283° West 401 461 38,000  Level FlightAware
12:03PM 48.6260 -91.8240 282° West 399 459 38,000  Level FlightAware
12:04PM 48.6410 -91.9290 282° West 398 458 38,000  Level FlightAware
12:04PM 48.6530 -92.0060 283° West 397 457 38,000  Level FlightAware
12:05PM 48.6690 -92.1260 281° West 396 456 38,000  Level FlightAware
12:05PM 48.6840 -92.2320 282° West 396 456 38,000  Level FlightAware
12:06PM 48.7010 -92.3470 283° West 396 456 38,000  Level FlightAware
12:07PM 48.7180 -92.4720 282° West 397 457 38,000  Level FlightAware
12:08PM 48.7320 -92.5730 282° West 398 458 38,000  Level FlightAware
12:08PM 48.7480 -92.6930 281° West 395 455 38,000  Level FlightAware
12:09PM 48.7630 -92.8040 282° West 393 452 38,000  Level FlightAware
12:10PM 48.7790 -92.9230 282° West 392 451 38,000  Level FlightAware
12:11PM 48.7960 -93.0470 282° West 391 450 38,000  Level FlightAware
12:11PM 48.8140 -93.1830 281° West 391 450 38,000  Level FlightAware
12:12PM 48.8270 -93.2860 281° West 391 450 38,000  Level FlightAware
12:13PM 48.8390 -93.3820 281° West 391 450 38,000  Level FlightAware
12:13PM 48.8500 -93.4650 281° West 391 450 38,000  Level FlightAware
12:14PM 48.8640 -93.5750 281° West 391 450 38,000  Level FlightAware
12:15PM 48.8720 -93.6340 282° West 391 450 38,000  Level FlightAware
12:16PM 48.8900 -93.7770 281° West 391 450 38,000  Level FlightAware
12:16PM 48.9000 -93.8590 281° West 391 450 38,000  Level FlightAware
12:17PM 48.9140 -93.9700 281° West 391 450 38,000  Level FlightAware
12:18PM 48.9250 -94.0520 282° West 391 450 38,000  Level FlightAware
12:18PM 48.9390 -94.1630 281° West 391 450 38,000  Level FlightAware
12:19PM 48.9490 -94.2430 281° West 391 450 38,000  Level FlightAware
12:20PM 48.9600 -94.3260 281° West 391 450 38,000  Level FlightAware
12:20PM 48.9740 -94.4380 281° West 391 450 38,000  Level FlightAware
12:21PM 48.9880 -94.5490 281° West 391 450 38,000  Level FlightAware
12:26PM 49.1000 -95.5480 280° West 392 451 38,000  Level FlightAware
12:27PM 49.1130 -95.6640 280° West 392 451 38,000  Level FlightAware
12:28PM 49.1300 -95.8290 279° West 389 448 38,000  Level FlightAware
12:28PM 49.1390 -95.9130 279° West 389 448 38,000  Level FlightAware
12:29PM 49.1510 -96.0280 279° West 387 445 38,000  Level FlightAware
12:30PM 49.1630 -96.1400 279° West 387 445 38,000  Level FlightAware
12:30PM 49.1740 -96.2400 280° West 386 444 38,000  Level FlightAware
12:31PM 49.1850 -96.3510 279° West 386 444 38,000  Level FlightAware
12:32PM 49.1970 -96.4690 279° West 387 445 38,000  Level FlightAware
12:32PM 49.2080 -96.5750 279° West 387 445 38,000  Level FlightAware
12:33PM 49.2180 -96.6840 278° West 387 445 38,000  Level FlightAware
12:34PM 49.2260 -96.7690 278° West 387 445 38,000  Level FlightAware
12:35PM 49.2380 -96.9070 278° West 387 445 38,000  Level FlightAware
12:35PM 49.2460 -96.9910 278° West 387 445 38,000  Level FlightAware
12:36PM 49.2590 -97.1310 278° West 387 445 38,000  Level FlightAware
12:37PM 49.2670 -97.2150 278° West 387 445 38,000  Level FlightAware
12:38PM 49.2770 -97.3250 278° West 387 445 38,000  Level FlightAware
12:38PM 49.2840 -97.4040 278° West 387 445 38,000  Level FlightAware
12:39PM 49.2940 -97.5170 278° West 387 445 38,000  Level FlightAware
12:40PM 49.3040 -97.6260 278° West 387 445 38,000  Level FlightAware
12:40PM 49.3120 -97.7090 278° West 387 445 38,000 1,440 Level FlightAware
12:41PM 49.3450 -98.0320 279° West 387 445 40,000 1,260 Climbing FlightAware
12:42PM 49.3550 -98.1480 278° West 385 443 40,000  Level FlightAware
12:43PM 49.3670 -98.2940 277° West 385 443 40,000  Level FlightAware
12:44PM 49.3780 -98.4170 278° West 384 442 40,000  Level FlightAware
12:44PM 49.3860 -98.5100 278° West 383 441 40,000  Level FlightAware
12:45PM 49.3930 -98.6010 277° West 383 441 40,000  Level FlightAware
12:46PM 49.4070 -98.7690 277° West 383 441 40,000  Level FlightAware
12:46PM 49.4160 -98.8780 277° West 384 442 40,000  Level FlightAware
12:47PM 49.4250 -98.9980 277° West 385 443 40,000  Level FlightAware
12:48PM 49.4330 -99.1010 277° West 386 444 40,000  Level FlightAware
12:48PM 49.4420 -99.2100 277° West 388 447 40,000  Level FlightAware
12:49PM 49.4500 -99.3170 277° West 389 448 40,000  Level FlightAware
12:50PM 49.4580 -99.4160 277° West 391 450 40,000  Level FlightAware
12:51PM 49.4670 -99.5430 276° West 392 451 40,000  Level FlightAware
12:51PM 49.4760 -99.6590 277° West 392 451 40,000  Level FlightAware
12:52PM 49.4840 -99.7770 276° West 392 451 40,000  Level FlightAware
12:53PM 49.4930 -99.9040 276° West 392 451 40,000  Level FlightAware
12:53PM 49.5000 -100.0020 276° West 393 452 40,000  Level FlightAware
12:54PM 49.5140 -100.1350 279° West 393 452 40,000  Level FlightAware
12:55PM 49.5260 -100.2460 279° West 391 450 40,000  Level FlightAware
12:55PM 49.5360 -100.3480 279° West 390 449 40,000  Level FlightAware
12:56PM 49.5490 -100.4760 279° West 389 448 40,000  Level FlightAware
12:57PM 49.5600 -100.5850 279° West 388 447 40,000  Level FlightAware
12:57PM 49.5690 -100.6710 279° West 388 447 40,000  Level FlightAware
12:58PM 49.5810 -100.7980 278° West 389 448 40,000  Level FlightAware
12:59PM 49.5920 -100.9110 279° West 389 448 40,000  Level FlightAware
01:00PM 49.6080 -101.0750 279° West 391 450 40,000  Level FlightAware
01:01PM 49.6200 -101.2080 278° West 392 451 40,000  Level FlightAware
01:01PM 49.6290 -101.3030 278° West 392 451 40,000  Level FlightAware
01:02PM 49.6390 -101.4060 279° West 392 451 40,000  Level FlightAware
01:02PM 49.6490 -101.5200 278° West 392 451 40,000  Level FlightAware
01:03PM 49.6600 -101.6340 279° West 392 451 40,000  Level FlightAware
01:04PM 49.6700 -101.7450 278° West 393 452 40,000  Level FlightAware
01:05PM 49.6820 -101.8880 277° West 392 451 40,000  Level FlightAware
01:06PM 49.6930 -102.0290 277° West 392 451 40,000  Level FlightAware
01:06PM 49.7070 -102.1690 279° West 392 451 40,000  Level FlightAware
01:07PM 49.7150 -102.2680 277° West 392 451 40,000  Level FlightAware
01:08PM 49.7210 -102.3480 277° West 392 451 40,000  Level FlightAware
01:08PM 49.7280 -102.4360 277° West 392 451 40,000  Level FlightAware
01:09PM 49.7370 -102.5470 277° West 392 451 40,000  Level FlightAware
01:10PM 49.7430 -102.6320 276° West 392 451 40,000  Level FlightAware
01:10PM 49.7510 -102.7220 278° West 392 451 40,000  Level FlightAware
01:11PM 49.7590 -102.8340 276° West 392 451 40,000  Level FlightAware
01:12PM 49.7660 -102.9240 277° West 392 451 40,000  Level FlightAware
01:12PM 49.7830 -103.0990 279° West 397 457 40,000  Level FlightAware
01:14PM 49.7980 -103.3090 276° West 397 457 40,000  Level FlightAware
01:14PM 49.8090 -103.4510 277° West 397 457 40,000  Level FlightAware
01:15PM 49.8220 -103.6190 277° West 396 456 40,000  Level FlightAware
01:16PM 49.8330 -103.7740 276° West 396 456 40,000  Level FlightAware
01:17PM 49.8430 -103.9160 276° West 396 456 40,000  Level FlightAware
01:18PM 49.8510 -104.0350 276° West 396 456 40,000  Level FlightAware
01:19PM 49.8580 -104.1360 276° West 396 456 40,000  Level FlightAware
01:19PM 49.8660 -104.2500 276° West 396 456 40,000  Level FlightAware
01:20PM 49.8720 -104.3570 275° West 396 456 40,000  Level FlightAware
01:21PM 49.8790 -104.4700 276° West 396 456 40,000  Level FlightAware
01:21PM 49.8900 -104.6260 276° West 399 459 40,000  Level FlightAware
01:22PM 49.8980 -104.7470 276° West 399 459 40,000  Level FlightAware
01:23PM 49.9070 -104.8810 276° West 398 458 40,000  Level FlightAware
01:24PM 49.9150 -105.0210 275° West 398 458 40,000  Level FlightAware
01:24PM 49.9210 -105.1270 275° West 400 460 40,000  Level FlightAware
01:25PM 49.9290 -105.2480 276° West 400 460 40,000  Level FlightAware
01:26PM 49.9350 -105.3500 275° West 401 461 40,000  Level FlightAware
01:26PM 49.9420 -105.4880 275° West 400 460 40,000  Level FlightAware
01:27PM 49.9480 -105.5910 275° West 401 461 40,000  Level FlightAware
01:28PM 49.9550 -105.7130 275° West 403 464 40,000  Level FlightAware
01:28PM 49.9620 -105.8450 275° West 405 466 40,000  Level FlightAware
01:29PM 49.9680 -105.9510 275° West 407 468 40,000  Level FlightAware
01:29PM 49.9710 -106.0060 275° West 408 470 40,000  Level FlightAware
01:30PM 49.9800 -106.1830 275° West 412 474 40,000  Level FlightAware
01:31PM 49.9840 -106.2790 274° West 413 475 40,000  Level FlightAware
01:32PM 49.9920 -106.4370 275° West 411 473 40,000  Level FlightAware
01:33PM 49.9980 -106.5530 275° West 411 473 40,000  Level FlightAware
01:33PM 50.0030 -106.6720 274° West 412 474 40,000  Level FlightAware
01:34PM 50.0090 -106.7960 274° West 411 473 40,000  Level FlightAware
01:35PM 50.0140 -106.9200 274° West 413 475 40,000  Level FlightAware
01:36PM 50.0210 -107.0650 274° West 415 478 40,000  Level FlightAware
01:36PM 50.0240 -107.1360 274° West 416 479 40,000  Level FlightAware
01:37PM 50.0280 -107.2660 273° West 416 479 40,000  Level FlightAware
01:38PM 50.0330 -107.3840 274° West 418 481 40,000  Level FlightAware
01:38PM 50.0370 -107.4840 274° West 418 481 40,000  Level FlightAware
01:39PM 50.0410 -107.6010 273° West 418 481 40,000  Level FlightAware
01:40PM 50.0510 -107.8380 274° West 423 487 40,000  Level FlightAware
01:41PM 50.0600 -108.0850 273° West 422 486 40,000  Level FlightAware
01:42PM 50.0630 -108.1830 273° West 422 486 40,000  Level FlightAware
01:43PM 50.0680 -108.3330 273° West 415 478 40,000  Level FlightAware
01:43PM 50.0740 -108.5350 273° West 412 474 40,000  Level FlightAware
01:44PM 50.0770 -108.6490 272° West 412 474 40,000  Level FlightAware
01:45PM 50.0820 -108.8200 273° West 412 474 40,000  Level FlightAware
01:46PM 50.0860 -108.9860 272° West 410 472 40,000  Level FlightAware
01:47PM 50.0900 -109.1270 273° West 408 470 40,000  Level FlightAware
01:47PM 50.0930 -109.2440 272° West 406 467 40,000  Level FlightAware
01:48PM 50.0960 -109.3750 272° West 402 463 40,000  Level FlightAware
01:49PM 50.0990 -109.4920 272° West 399 459 40,000  Level FlightAware
01:49PM 50.1020 -109.6220 272° West 396 456 40,000  Level FlightAware
01:50PM 50.1040 -109.7340 272° West 396 456 40,000  Level FlightAware
01:51PM 50.1060 -109.8500 272° West 400 460 40,000  Level FlightAware
01:51PM 50.1080 -109.9540 272° West 401 461 40,000  Level FlightAware
01:52PM 50.1100 -110.0840 271° West 401 461 40,000  Level FlightAware
01:53PM 50.1100 -110.1750 270° West 401 461 40,000  Level FlightAware
01:54PM 50.1140 -110.3330 272° West 417 480 40,000  Level FlightAware
01:55PM 50.1160 -110.5160 271° West 424 488 40,000  Level FlightAware
01:55PM 50.1180 -110.6140 272° West 423 487 40,000  Level FlightAware
01:56PM 50.1190 -110.7590 271° West 423 487 40,000  Level FlightAware
01:57PM 50.1210 -110.8970 271° West 421 484 40,000  Level FlightAware
01:57PM 50.1220 -111.0000 271° West 420 483 40,000  Level FlightAware
01:58PM 50.1230 -111.1230 271° West 418 481 40,000  Level FlightAware
01:59PM 50.1240 -111.2300 271° West 416 479 40,000  Level FlightAware
01:59PM 50.1220 -111.4030 269° West 413 475 40,000  Level FlightAware
02:01PM 50.1190 -111.6100 269° West 412 474 40,000  Level FlightAware
02:02PM 50.1170 -111.7890 269° West 416 479 40,000  Level FlightAware
02:02PM 50.1150 -111.9090 269° West 415 478 40,000  Level FlightAware
02:03PM 50.1130 -112.0420 269° West 414 476 40,000  Level FlightAware
02:04PM 50.1110 -112.1780 269° West 412 474 40,000  Level FlightAware
02:04PM 50.1090 -112.2950 269° West 411 473 40,000  Level FlightAware
02:05PM 50.1070 -112.4260 269° West 411 473 40,000  Level FlightAware
02:06PM 50.1050 -112.5440 269° West 411 473 40,000  Level FlightAware
02:07PM 50.1020 -112.6620 268° West 411 473 40,000  Level FlightAware
02:07PM 50.0990 -112.7820 268° West 412 474 40,000  Level FlightAware
02:08PM 50.0960 -112.9140 268° West 412 474 40,000  Level FlightAware
02:09PM 50.0930 -113.0490 268° West 412 474 40,000  Level FlightAware
02:09PM 50.0910 -113.1500 268° West 411 473 40,000  Level FlightAware
02:10PM 50.0880 -113.2700 268° West 412 474 40,000  Level FlightAware
02:10PM 50.0850 -113.3550 267° West 415 478 40,000  Level FlightAware
02:11PM 50.0820 -113.4710 268° West 417 480 40,000  Level FlightAware
02:12PM 50.0790 -113.5970 268° West 423 487 40,000  Level FlightAware
02:13PM 50.0750 -113.7320 267° West 423 487 40,000  Level FlightAware
02:13PM 50.0710 -113.8560 267° West 422 486 40,000  Level FlightAware
02:14PM 50.0670 -113.9910 267° West 420 483 40,000  Level FlightAware
02:15PM 50.0600 -114.2020 267° West 422 486 40,000  Level FlightAware
02:16PM 50.0550 -114.3250 266° West 421 484 40,000  Level FlightAware
02:17PM 50.0500 -114.4600 267° West 421 484 40,000  Level FlightAware
02:17PM 50.0460 -114.5670 267° West 424 488 40,000  Level FlightAware
02:18PM 50.0410 -114.7020 267° West 429 494 40,000  Level FlightAware
02:19PM 50.0370 -114.8270 267° West 427 491 40,000  Level FlightAware
02:19PM 50.0310 -114.9650 266° West 426 490 40,000  Level FlightAware
02:20PM 50.0260 -115.0850 266° West 426 490 40,000  Level FlightAware
02:21PM 50.0210 -115.2100 266° West 426 490 40,000  Level FlightAware
02:21PM 50.0150 -115.3450 266° West 431 496 40,000  Level FlightAware
02:22PM 50.0100 -115.4580 266° West 435 501 40,000  Level FlightAware
02:23PM 50.0040 -115.5820 266° West 434 499 40,000  Level FlightAware
02:23PM 49.9980 -115.7180 266° West 430 495 40,000  Level FlightAware
02:24PM 49.9920 -115.8430 266° West 430 495 40,000  Level FlightAware
02:25PM 49.9860 -115.9500 265° West 429 494 40,000  Level FlightAware
02:25PM 49.9800 -116.0930 266° West 428 493 40,000  Level FlightAware
02:26PM 49.9730 -116.2110 265° West 428 493 40,000  Level FlightAware
02:27PM 49.9670 -116.3440 266° West 428 493 40,000  Level FlightAware
02:28PM 49.9520 -116.6040 265° West 427 491 40,000  Level FlightAware
02:29PM 49.9450 -116.7400 265° West 427 491 40,000  Level FlightAware
02:33PM 49.8950 -117.5770 265° West 436 502 40,000  Level FlightAware
02:34PM 49.8830 -117.7620 264° West 434 499 40,000  Level FlightAware
02:37PM 49.8540 -118.1920 264° West 434 499 40,000  Level FlightAware
02:38PM 49.8333 -118.4167 264° West 430 495 40,000  Level Vancouver Center
02:39PM 49.8000 -118.5667 251° West 430 495 40,000  Level Vancouver Center
02:40PM 49.8000 -118.7833 270° West 430 495 40,000  Level Vancouver Center
02:41PM 49.7833 -118.9667 262° West 430 495 40,000  Level Vancouver Center
02:42PM 49.7667 -119.1500 262° West 430 495 40,000  Level Vancouver Center
02:43PM 49.7500 -119.3333 262° West 430 495 40,000  Level Vancouver Center
02:44PM 49.7500 -119.5167 270° West 430 495 40,000  Level Vancouver Center
02:45PM 49.7167 -119.7000 254° West 430 495 40,000  Level Vancouver Center
02:46PM 49.7000 -119.8667 261° West 430 495 40,000 -1,920 Level Vancouver Center
02:52PM 49.6230 -121.0260 261° West 395 455 26,500 -2,220 Descending FlightAware
02:53PM 49.6140 -121.1220 262° West 383 441 25,300 -1,920 Descending FlightAware
02:54PM 49.6010 -121.2550 261° West 364 419 23,800 -1,800 Descending FlightAware
02:54PM 49.5920 -121.3540 262° West 352 405 22,600 -1,800 Descending FlightAware
02:55PM 49.5820 -121.4560 261° West 340 391 21,400 -1,800 Descending FlightAware
02:55PM 49.5750 -121.5240 261° West 344 396 20,500 -1,800 Descending FlightAware
02:56PM 49.5650 -121.6230 261° West 357 411 19,400 -1,860 Descending FlightAware
02:57PM 49.5540 -121.7340 261° West 353 406 18,000 -1,920 Descending FlightAware
02:58PM 49.5300 -121.8480 252° West 348 400 16,500 -1,860 Descending FlightAware
02:58PM 49.5090 -121.9310 249° West 341 392 15,400 -1,860 Descending FlightAware
02:59PM 49.4850 -122.0240 248° West 331 381 14,100 -1,740 Descending FlightAware
03:00PM 49.4460 -122.1780 249° West 318 366 12,100 -1,500 Descending FlightAware
03:01PM 49.4250 -122.2560 248° West 313 360 11,400 -1,200 Descending FlightAware
03:01PM 49.4060 -122.3300 248° West 306 352 10,600 -1,320 Descending FlightAware
03:02PM 49.3830 -122.3800 235° Southwest 301 346 10,000 -1,140 Descending FlightAware
03:02PM 49.3650 -122.4110 228° Southwest 292 336 9,700 -1,140 Descending FlightAware
03:02PM 49.3500 -122.4380 230° Southwest 289 333 9,300 -1,740 Descending FlightAware
03:03PM 49.3240 -122.4820 228° Southwest 292 336 8,400 -1,980 Descending FlightAware
03:03PM 49.3030 -122.5180 228° Southwest 293 337 7,600 -1,920 Descending FlightAware
03:04PM 49.2860 -122.5450 226° Southwest 285 328 7,100 -1,380 Descending FlightAware
03:04PM 49.2640 -122.5840 229° Southwest 275 316 6,600 -1,320 Descending FlightAware
03:04PM 49.2510 -122.6060 228° Southwest 276 318 6,200 -900 Descending FlightAware
03:05PM 49.2310 -122.6400 228° Southwest 259 298 6,000 -480 Descending FlightAware
03:05PM 49.2180 -122.6620 228° Southwest 248 285 5,900 -600 Descending FlightAware
03:05PM 49.2000 -122.6990 233° Southwest 228 262 5,600 -780 Descending FlightAware
03:06PM 49.1860 -122.7360 240° Southwest 213 245 5,200 -840 Descending FlightAware
03:06PM 49.1710 -122.7770 241° Southwest 197 227 4,800 -900 Descending FlightAware
03:07PM 49.1640 -122.8060 250° West 185 213 4,400 -1,020 Descending FlightAware
03:07PM 49.1640 -122.8410 270° West 182 209 3,900 -900 Descending FlightAware
03:08PM 49.1670 -122.8720 278° West 176 203 3,600 -900 Descending FlightAware
03:08PM 49.1690 -122.8930 278° West 173 199 3,300 -1,020 Descending FlightAware
03:08PM 49.1720 -122.9140 282° West 174 200 3,000 -1,020 Descending FlightAware
03:09PM 49.1770 -122.9550 281° West 175 201 2,500 -1,020 Descending FlightAware
03:09PM 49.1800 -122.9840 279° West 173 199 2,100 -960 Descending FlightAware
03:10PM 49.1840 -123.0170 281° West 158 182 1,700 -780 Descending FlightAware
03:10PM 49.1870 -123.0440 280° West 138 159 1,400 -840 Descending FlightAware
03:10PM 49.1880 -123.0560 277° West 139 160 1,200 -1,200 Descending FlightAware
03:13PM 49.2020 -123.1880 279° West 10 12 -420 Descending FlightAware